sensor_id;sensor_type;location;lat;lon;timestamp;P1;durP1;ratioP1;P2;durP2;ratioP2
20294;SDS011;10306;52.128;5.208;2023-03-16T00:01:48;3.77;;;3.57;;
20294;SDS011;10306;52.128;5.208;2023-03-16T00:04:14;3.40;;;3.20;;
20294;SDS011;10306;52.128;5.208;2023-03-16T00:06:40;4.53;;;3.47;;
20294;SDS011;10306;52.128;5.208;2023-03-16T00:09:06;4.27;;;3.87;;
20294;SDS011;10306;52.128;5.208;2023-03-16T00:11:33;3.57;;;3.37;;
20294;SDS011;10306;52.128;5.208;2023-03-16T00:13:59;3.57;;;3.13;;
20294;SDS011;10306;52.128;5.208;2023-03-16T00:16:28;3.73;;;3.40;;
20294;SDS011;10306;52.128;5.208;2023-03-16T00:18:54;4.37;;;4.00;;
20294;SDS011;10306;52.128;5.208;2023-03-16T00:21:20;3.33;;;3.20;;
20294;SDS011;10306;52.128;5.208;2023-03-16T00:23:46;4.13;;;3.70;;
20294;SDS011;10306;52.128;5.208;2023-03-16T00:26:12;4.30;;;3.87;;
20294;SDS011;10306;52.128;5.208;2023-03-16T00:28:38;4.00;;;3.80;;
20294;SDS011;10306;52.128;5.208;2023-03-16T00:31:07;4.00;;;3.77;;
20294;SDS011;10306;52.128;5.208;2023-03-16T00:33:35;4.27;;;3.87;;
20294;SDS011;10306;52.128;5.208;2023-03-16T00:36:02;4.40;;;4.10;;
20294;SDS011;10306;52.128;5.208;2023-03-16T00:38:32;4.43;;;4.10;;
20294;SDS011;10306;52.128;5.208;2023-03-16T00:40:58;4.33;;;3.83;;
20294;SDS011;10306;52.128;5.208;2023-03-16T00:43:27;4.17;;;3.87;;
20294;SDS011;10306;52.128;5.208;2023-03-16T00:46:00;4.40;;;4.10;;
20294;SDS011;10306;52.128;5.208;2023-03-16T00:48:31;4.97;;;4.40;;
20294;SDS011;10306;52.128;5.208;2023-03-16T00:50:58;5.07;;;4.10;;
20294;SDS011;10306;52.128;5.208;2023-03-16T00:53:24;4.60;;;4.20;;
20294;SDS011;10306;52.128;5.208;2023-03-16T00:55:50;4.13;;;3.80;;
20294;SDS011;10306;52.128;5.208;2023-03-16T00:58:17;4.53;;;4.13;;
20294;SDS011;10306;52.128;5.208;2023-03-16T01:00:44;5.73;;;4.17;;
20294;SDS011;10306;52.128;5.208;2023-03-16T01:03:10;4.97;;;4.60;;
20294;SDS011;10306;52.128;5.208;2023-03-16T01:05:40;5.63;;;4.73;;
20294;SDS011;10306;52.128;5.208;2023-03-16T01:08:06;4.37;;;4.07;;
20294;SDS011;10306;52.128;5.208;2023-03-16T01:10:36;6.50;;;4.07;;
20294;SDS011;10306;52.128;5.208;2023-03-16T01:13:02;5.07;;;4.57;;
20294;SDS011;10306;52.128;5.208;2023-03-16T01:15:28;4.60;;;4.20;;
20294;SDS011;10306;52.128;5.208;2023-03-16T01:17:54;7.03;;;4.33;;
20294;SDS011;10306;52.128;5.208;2023-03-16T01:20:20;4.43;;;4.13;;
20294;SDS011;10306;52.128;5.208;2023-03-16T01:22:46;5.63;;;4.40;;
20294;SDS011;10306;52.128;5.208;2023-03-16T01:25:12;4.63;;;4.20;;
20294;SDS011;10306;52.128;5.208;2023-03-16T01:27:38;4.63;;;4.23;;
20294;SDS011;10306;52.128;5.208;2023-03-16T01:30:06;4.67;;;4.27;;
20294;SDS011;10306;52.128;5.208;2023-03-16T01:32:32;4.77;;;4.27;;
20294;SDS011;10306;52.128;5.208;2023-03-16T01:34:58;4.50;;;4.20;;
20294;SDS011;10306;52.128;5.208;2023-03-16T01:37:24;5.10;;;4.47;;
20294;SDS011;10306;52.128;5.208;2023-03-16T01:39:50;5.03;;;4.60;;
20294;SDS011;10306;52.128;5.208;2023-03-16T01:42:16;4.37;;;4.10;;
20294;SDS011;10306;52.128;5.208;2023-03-16T01:44:49;4.47;;;4.10;;
20294;SDS011;10306;52.128;5.208;2023-03-16T01:47:16;3.93;;;3.73;;
20294;SDS011;10306;52.128;5.208;2023-03-16T01:49:42;5.03;;;4.73;;
20294;SDS011;10306;52.128;5.208;2023-03-16T01:52:13;4.93;;;4.53;;
20294;SDS011;10306;52.128;5.208;2023-03-16T01:54:41;4.87;;;4.50;;
20294;SDS011;10306;52.128;5.208;2023-03-16T01:57:09;4.47;;;4.17;;
20294;SDS011;10306;52.128;5.208;2023-03-16T01:59:43;4.33;;;4.03;;
20294;SDS011;10306;52.128;5.208;2023-03-16T02:02:11;4.70;;;4.33;;
20294;SDS011;10306;52.128;5.208;2023-03-16T02:04:43;5.90;;;4.67;;
20294;SDS011;10306;52.128;5.208;2023-03-16T02:07:11;4.67;;;4.27;;
20294;SDS011;10306;52.128;5.208;2023-03-16T02:09:41;6.13;;;4.60;;
20294;SDS011;10306;52.128;5.208;2023-03-16T02:12:10;4.30;;;3.97;;
20294;SDS011;10306;52.128;5.208;2023-03-16T02:14:42;5.10;;;4.23;;
20294;SDS011;10306;52.128;5.208;2023-03-16T02:17:08;4.40;;;4.10;;
20294;SDS011;10306;52.128;5.208;2023-03-16T02:19:40;4.30;;;4.00;;
20294;SDS011;10306;52.128;5.208;2023-03-16T02:22:09;6.77;;;4.70;;
20294;SDS011;10306;52.128;5.208;2023-03-16T02:24:35;5.40;;;4.90;;
20294;SDS011;10306;52.128;5.208;2023-03-16T02:27:03;4.80;;;4.43;;
20294;SDS011;10306;52.128;5.208;2023-03-16T02:32:15;4.73;;;4.30;;
20294;SDS011;10306;52.128;5.208;2023-03-16T02:34:41;4.60;;;4.30;;
20294;SDS011;10306;52.128;5.208;2023-03-16T02:37:08;4.63;;;4.13;;
20294;SDS011;10306;52.128;5.208;2023-03-16T02:39:35;5.30;;;4.80;;
20294;SDS011;10306;52.128;5.208;2023-03-16T02:42:02;4.40;;;4.03;;
20294;SDS011;10306;52.128;5.208;2023-03-16T02:44:30;4.73;;;4.33;;
20294;SDS011;10306;52.128;5.208;2023-03-16T02:47:02;6.73;;;4.83;;
20294;SDS011;10306;52.128;5.208;2023-03-16T02:49:31;4.93;;;4.53;;
20294;SDS011;10306;52.128;5.208;2023-03-16T02:51:58;4.90;;;3.97;;
20294;SDS011;10306;52.128;5.208;2023-03-16T02:54:24;4.50;;;4.10;;
20294;SDS011;10306;52.128;5.208;2023-03-16T02:56:50;4.17;;;3.80;;
20294;SDS011;10306;52.128;5.208;2023-03-16T02:59:16;5.27;;;4.30;;
20294;SDS011;10306;52.128;5.208;2023-03-16T03:01:42;5.03;;;4.27;;
20294;SDS011;10306;52.128;5.208;2023-03-16T03:04:08;4.67;;;4.27;;
20294;SDS011;10306;52.128;5.208;2023-03-16T03:06:34;5.27;;;4.73;;
20294;SDS011;10306;52.128;5.208;2023-03-16T03:09:00;6.33;;;4.77;;
20294;SDS011;10306;52.128;5.208;2023-03-16T03:11:27;4.60;;;4.20;;
20294;SDS011;10306;52.128;5.208;2023-03-16T03:13:53;6.50;;;4.43;;
20294;SDS011;10306;52.128;5.208;2023-03-16T03:16:19;4.20;;;3.80;;
20294;SDS011;10306;52.128;5.208;2023-03-16T03:18:46;4.40;;;4.10;;
20294;SDS011;10306;52.128;5.208;2023-03-16T03:21:12;4.67;;;4.17;;
20294;SDS011;10306;52.128;5.208;2023-03-16T03:23:38;4.97;;;4.47;;
20294;SDS011;10306;52.128;5.208;2023-03-16T03:26:04;4.80;;;4.40;;
20294;SDS011;10306;52.128;5.208;2023-03-16T03:28:30;4.67;;;4.27;;
20294;SDS011;10306;52.128;5.208;2023-03-16T03:30:58;6.40;;;4.47;;
20294;SDS011;10306;52.128;5.208;2023-03-16T03:33:25;4.53;;;4.23;;
20294;SDS011;10306;52.128;5.208;2023-03-16T03:35:55;5.20;;;4.70;;
20294;SDS011;10306;52.128;5.208;2023-03-16T03:38:21;4.70;;;4.30;;
20294;SDS011;10306;52.128;5.208;2023-03-16T03:40:48;5.27;;;4.43;;
20294;SDS011;10306;52.128;5.208;2023-03-16T03:43:14;5.50;;;5.00;;
20294;SDS011;10306;52.128;5.208;2023-03-16T03:45:40;6.27;;;4.97;;
20294;SDS011;10306;52.128;5.208;2023-03-16T03:48:06;5.13;;;4.53;;
20294;SDS011;10306;52.128;5.208;2023-03-16T03:50:32;4.97;;;4.53;;
20294;SDS011;10306;52.128;5.208;2023-03-16T03:52:58;5.53;;;4.77;;
20294;SDS011;10306;52.128;5.208;2023-03-16T03:55:24;4.90;;;4.53;;
20294;SDS011;10306;52.128;5.208;2023-03-16T03:57:50;5.10;;;4.60;;
20294;SDS011;10306;52.128;5.208;2023-03-16T04:00:16;5.90;;;5.30;;
20294;SDS011;10306;52.128;5.208;2023-03-16T04:02:45;5.17;;;4.67;;
20294;SDS011;10306;52.128;5.208;2023-03-16T04:05:11;7.73;;;5.17;;
20294;SDS011;10306;52.128;5.208;2023-03-16T04:07:37;6.13;;;4.53;;
20294;SDS011;10306;52.128;5.208;2023-03-16T04:10:04;5.37;;;4.87;;
20294;SDS011;10306;52.128;5.208;2023-03-16T04:12:30;4.77;;;4.43;;
20294;SDS011;10306;52.128;5.208;2023-03-16T04:14:56;5.17;;;4.77;;
20294;SDS011;10306;52.128;5.208;2023-03-16T04:17:22;7.63;;;4.97;;
20294;SDS011;10306;52.128;5.208;2023-03-16T04:19:48;4.77;;;4.43;;
20294;SDS011;10306;52.128;5.208;2023-03-16T04:22:14;5.30;;;4.90;;
20294;SDS011;10306;52.128;5.208;2023-03-16T04:24:40;6.30;;;4.67;;
20294;SDS011;10306;52.128;5.208;2023-03-16T04:27:08;5.13;;;4.63;;
20294;SDS011;10306;52.128;5.208;2023-03-16T04:29:36;5.67;;;5.17;;
20294;SDS011;10306;52.128;5.208;2023-03-16T04:32:03;6.27;;;4.97;;
20294;SDS011;10306;52.128;5.208;2023-03-16T04:34:29;5.20;;;4.80;;
20294;SDS011;10306;52.128;5.208;2023-03-16T04:36:55;7.90;;;4.90;;
20294;SDS011;10306;52.128;5.208;2023-03-16T04:39:21;5.37;;;4.87;;
20294;SDS011;10306;52.128;5.208;2023-03-16T04:41:48;6.90;;;5.53;;
20294;SDS011;10306;52.128;5.208;2023-03-16T04:44:14;5.43;;;5.00;;
20294;SDS011;10306;52.128;5.208;2023-03-16T04:46:40;5.73;;;4.63;;
20294;SDS011;10306;52.128;5.208;2023-03-16T04:49:05;7.17;;;4.77;;
20294;SDS011;10306;52.128;5.208;2023-03-16T04:51:33;6.03;;;4.63;;
20294;SDS011;10306;52.128;5.208;2023-03-16T04:54:00;5.83;;;5.23;;
20294;SDS011;10306;52.128;5.208;2023-03-16T04:56:26;5.63;;;5.00;;
20294;SDS011;10306;52.128;5.208;2023-03-16T04:58:52;6.53;;;4.57;;
20294;SDS011;10306;52.128;5.208;2023-03-16T05:01:20;4.77;;;4.37;;
20294;SDS011;10306;52.128;5.208;2023-03-16T05:03:46;5.77;;;4.20;;
20294;SDS011;10306;52.128;5.208;2023-03-16T05:06:13;5.37;;;4.30;;
20294;SDS011;10306;52.128;5.208;2023-03-16T05:08:40;5.23;;;4.70;;
20294;SDS011;10306;52.128;5.208;2023-03-16T05:11:06;4.67;;;4.37;;
20294;SDS011;10306;52.128;5.208;2023-03-16T05:13:32;5.10;;;4.60;;
20294;SDS011;10306;52.128;5.208;2023-03-16T05:15:58;4.87;;;4.30;;
20294;SDS011;10306;52.128;5.208;2023-03-16T05:18:24;7.87;;;4.73;;
20294;SDS011;10306;52.128;5.208;2023-03-16T05:20:51;5.30;;;4.67;;
20294;SDS011;10306;52.128;5.208;2023-03-16T05:23:18;9.43;;;5.03;;
20294;SDS011;10306;52.128;5.208;2023-03-16T05:25:45;4.93;;;4.37;;
20294;SDS011;10306;52.128;5.208;2023-03-16T05:28:11;5.70;;;4.53;;
20294;SDS011;10306;52.128;5.208;2023-03-16T05:30:37;4.77;;;4.37;;
20294;SDS011;10306;52.128;5.208;2023-03-16T05:33:03;4.73;;;4.33;;
20294;SDS011;10306;52.128;5.208;2023-03-16T05:35:29;5.10;;;4.60;;
20294;SDS011;10306;52.128;5.208;2023-03-16T05:37:55;6.63;;;4.77;;
20294;SDS011;10306;52.128;5.208;2023-03-16T05:40:21;6.20;;;4.80;;
20294;SDS011;10306;52.128;5.208;2023-03-16T05:42:48;4.67;;;4.10;;
20294;SDS011;10306;52.128;5.208;2023-03-16T05:45:15;4.00;;;3.77;;
20294;SDS011;10306;52.128;5.208;2023-03-16T05:47:41;7.37;;;4.93;;
20294;SDS011;10306;52.128;5.208;2023-03-16T05:50:09;5.77;;;4.40;;
20294;SDS011;10306;52.128;5.208;2023-03-16T05:52:35;4.97;;;4.63;;
20294;SDS011;10306;52.128;5.208;2023-03-16T05:55:02;5.10;;;4.60;;
20294;SDS011;10306;52.128;5.208;2023-03-16T05:57:29;5.07;;;4.10;;
20294;SDS011;10306;52.128;5.208;2023-03-16T05:59:55;4.83;;;4.30;;
20294;SDS011;10306;52.128;5.208;2023-03-16T06:02:21;6.90;;;4.70;;
20294;SDS011;10306;52.128;5.208;2023-03-16T06:04:47;4.80;;;4.40;;
20294;SDS011;10306;52.128;5.208;2023-03-16T06:07:13;4.63;;;4.23;;
20294;SDS011;10306;52.128;5.208;2023-03-16T06:09:39;5.10;;;4.10;;
20294;SDS011;10306;52.128;5.208;2023-03-16T06:12:05;4.87;;;4.40;;
20294;SDS011;10306;52.128;5.208;2023-03-16T06:14:31;4.57;;;4.27;;
20294;SDS011;10306;52.128;5.208;2023-03-16T06:16:57;5.10;;;4.53;;
20294;SDS011;10306;52.128;5.208;2023-03-16T06:19:23;5.63;;;4.20;;
20294;SDS011;10306;52.128;5.208;2023-03-16T06:21:49;4.80;;;3.87;;
20294;SDS011;10306;52.128;5.208;2023-03-16T06:24:15;8.67;;;4.43;;
20294;SDS011;10306;52.128;5.208;2023-03-16T06:26:41;4.13;;;3.73;;
20294;SDS011;10306;52.128;5.208;2023-03-16T06:29:07;4.63;;;4.13;;
20294;SDS011;10306;52.128;5.208;2023-03-16T06:31:33;3.73;;;3.53;;
20294;SDS011;10306;52.128;5.208;2023-03-16T06:33:59;4.63;;;4.13;;
20294;SDS011;10306;52.128;5.208;2023-03-16T06:36:25;6.63;;;4.30;;
20294;SDS011;10306;52.128;5.208;2023-03-16T06:38:51;4.27;;;3.97;;
20294;SDS011;10306;52.128;5.208;2023-03-16T06:41:17;4.93;;;3.87;;
20294;SDS011;10306;52.128;5.208;2023-03-16T06:43:43;8.03;;;3.87;;
20294;SDS011;10306;52.128;5.208;2023-03-16T06:46:09;4.43;;;4.00;;
20294;SDS011;10306;52.128;5.208;2023-03-16T06:48:35;4.33;;;3.93;;
20294;SDS011;10306;52.128;5.208;2023-03-16T06:51:01;3.90;;;3.60;;
20294;SDS011;10306;52.128;5.208;2023-03-16T06:53:27;4.27;;;3.87;;
20294;SDS011;10306;52.128;5.208;2023-03-16T06:55:53;4.10;;;3.70;;
20294;SDS011;10306;52.128;5.208;2023-03-16T06:58:19;6.00;;;3.70;;
20294;SDS011;10306;52.128;5.208;2023-03-16T07:00:45;4.07;;;3.77;;
20294;SDS011;10306;52.128;5.208;2023-03-16T07:03:11;3.87;;;3.57;;
20294;SDS011;10306;52.128;5.208;2023-03-16T07:05:37;4.23;;;3.93;;
20294;SDS011;10306;52.128;5.208;2023-03-16T07:08:03;4.33;;;3.87;;
20294;SDS011;10306;52.128;5.208;2023-03-16T07:10:29;3.83;;;3.63;;
20294;SDS011;10306;52.128;5.208;2023-03-16T07:12:56;7.03;;;3.50;;
20294;SDS011;10306;52.128;5.208;2023-03-16T07:15:22;3.50;;;3.30;;
20294;SDS011;10306;52.128;5.208;2023-03-16T07:17:50;3.60;;;3.30;;
20294;SDS011;10306;52.128;5.208;2023-03-16T07:20:16;3.83;;;3.57;;
20294;SDS011;10306;52.128;5.208;2023-03-16T07:22:42;4.33;;;4.00;;
20294;SDS011;10306;52.128;5.208;2023-03-16T07:25:09;4.50;;;3.40;;
20294;SDS011;10306;52.128;5.208;2023-03-16T07:27:35;4.23;;;3.47;;
20294;SDS011;10306;52.128;5.208;2023-03-16T07:30:02;4.30;;;3.90;;
20294;SDS011;10306;52.128;5.208;2023-03-16T07:32:29;4.43;;;4.00;;
20294;SDS011;10306;52.128;5.208;2023-03-16T07:34:56;8.93;;;3.87;;
20294;SDS011;10306;52.128;5.208;2023-03-16T07:37:23;6.80;;;3.57;;
20294;SDS011;10306;52.128;5.208;2023-03-16T07:39:48;3.90;;;3.57;;
20294;SDS011;10306;52.128;5.208;2023-03-16T07:42:15;4.20;;;3.83;;
20294;SDS011;10306;52.128;5.208;2023-03-16T07:44:41;4.20;;;3.67;;
20294;SDS011;10306;52.128;5.208;2023-03-16T07:47:08;4.03;;;3.53;;
20294;SDS011;10306;52.128;5.208;2023-03-16T07:49:36;5.13;;;3.80;;
20294;SDS011;10306;52.128;5.208;2023-03-16T07:52:02;4.17;;;3.77;;
20294;SDS011;10306;52.128;5.208;2023-03-16T07:54:28;4.37;;;4.03;;
20294;SDS011;10306;52.128;5.208;2023-03-16T07:56:54;4.33;;;4.03;;
20294;SDS011;10306;52.128;5.208;2023-03-16T07:59:20;5.67;;;3.80;;
20294;SDS011;10306;52.128;5.208;2023-03-16T08:01:46;5.43;;;3.53;;
20294;SDS011;10306;52.128;5.208;2023-03-16T08:04:13;5.37;;;3.90;;
20294;SDS011;10306;52.128;5.208;2023-03-16T08:06:39;3.83;;;3.50;;
20294;SDS011;10306;52.128;5.208;2023-03-16T08:09:06;5.10;;;3.97;;
20294;SDS011;10306;52.128;5.208;2023-03-16T08:11:32;4.37;;;3.97;;
20294;SDS011;10306;52.128;5.208;2023-03-16T08:13:58;4.20;;;3.83;;
20294;SDS011;10306;52.128;5.208;2023-03-16T08:16:24;4.87;;;3.90;;
20294;SDS011;10306;52.128;5.208;2023-03-16T08:18:51;3.73;;;3.43;;
20294;SDS011;10306;52.128;5.208;2023-03-16T08:21:18;7.03;;;3.97;;
20294;SDS011;10306;52.128;5.208;2023-03-16T08:23:44;3.90;;;3.60;;
20294;SDS011;10306;52.128;5.208;2023-03-16T08:26:16;6.07;;;3.30;;
20294;SDS011;10306;52.128;5.208;2023-03-16T08:28:43;5.90;;;3.90;;
20294;SDS011;10306;52.128;5.208;2023-03-16T08:31:10;4.37;;;3.37;;
20294;SDS011;10306;52.128;5.208;2023-03-16T08:33:36;4.77;;;4.07;;
20294;SDS011;10306;52.128;5.208;2023-03-16T08:36:04;3.53;;;3.10;;
20294;SDS011;10306;52.128;5.208;2023-03-16T08:38:30;3.53;;;3.23;;
20294;SDS011;10306;52.128;5.208;2023-03-16T08:40:57;3.93;;;3.30;;
20294;SDS011;10306;52.128;5.208;2023-03-16T08:43:24;3.63;;;3.07;;
20294;SDS011;10306;52.128;5.208;2023-03-16T08:45:51;5.77;;;3.50;;
20294;SDS011;10306;52.128;5.208;2023-03-16T08:48:17;4.50;;;3.30;;
20294;SDS011;10306;52.128;5.208;2023-03-16T08:50:44;4.30;;;3.47;;
20294;SDS011;10306;52.128;5.208;2023-03-16T08:53:10;3.20;;;3.00;;
20294;SDS011;10306;52.128;5.208;2023-03-16T08:55:37;3.17;;;2.97;;
20294;SDS011;10306;52.128;5.208;2023-03-16T08:58:05;3.33;;;3.13;;
20294;SDS011;10306;52.128;5.208;2023-03-16T09:00:31;4.43;;;3.30;;
20294;SDS011;10306;52.128;5.208;2023-03-16T09:02:57;4.07;;;3.67;;
20294;SDS011;10306;52.128;5.208;2023-03-16T09:05:24;4.03;;;3.53;;
20294;SDS011;10306;52.128;5.208;2023-03-16T09:07:50;3.30;;;3.00;;
20294;SDS011;10306;52.128;5.208;2023-03-16T09:10:18;5.23;;;3.63;;
20294;SDS011;10306;52.128;5.208;2023-03-16T09:12:47;5.07;;;3.20;;
20294;SDS011;10306;52.128;5.208;2023-03-16T09:15:13;3.20;;;2.70;;
20294;SDS011;10306;52.128;5.208;2023-03-16T09:17:39;3.37;;;3.17;;
20294;SDS011;10306;52.128;5.208;2023-03-16T09:20:06;3.83;;;3.43;;
20294;SDS011;10306;52.128;5.208;2023-03-16T09:22:34;3.40;;;3.20;;
20294;SDS011;10306;52.128;5.208;2023-03-16T09:25:01;3.43;;;3.13;;
20294;SDS011;10306;52.128;5.208;2023-03-16T09:27:27;3.43;;;3.13;;
20294;SDS011;10306;52.128;5.208;2023-03-16T09:29:54;3.27;;;3.00;;
20294;SDS011;10306;52.128;5.208;2023-03-16T09:32:21;3.47;;;3.27;;
20294;SDS011;10306;52.128;5.208;2023-03-16T09:34:47;4.00;;;3.70;;
20294;SDS011;10306;52.128;5.208;2023-03-16T09:37:13;3.83;;;3.37;;
20294;SDS011;10306;52.128;5.208;2023-03-16T09:39:40;3.10;;;2.90;;
20294;SDS011;10306;52.128;5.208;2023-03-16T09:42:11;2.97;;;2.67;;
20294;SDS011;10306;52.128;5.208;2023-03-16T09:44:45;3.87;;;3.43;;
20294;SDS011;10306;52.128;5.208;2023-03-16T09:47:17;4.37;;;3.23;;
20294;SDS011;10306;52.128;5.208;2023-03-16T09:49:47;3.07;;;2.87;;
20294;SDS011;10306;52.128;5.208;2023-03-16T09:52:34;3.83;;;3.07;;
20294;SDS011;10306;52.128;5.208;2023-03-16T09:55:11;3.33;;;2.90;;
20294;SDS011;10306;52.128;5.208;2023-03-16T09:57:42;3.47;;;2.53;;
20294;SDS011;10306;52.128;5.208;2023-03-16T10:05:21;3.00;;;2.73;;
20294;SDS011;10306;52.128;5.208;2023-03-16T10:12:42;3.73;;;3.10;;
20294;SDS011;10306;52.128;5.208;2023-03-16T10:15:14;2.90;;;2.70;;
20294;SDS011;10306;52.128;5.208;2023-03-16T10:17:42;3.07;;;2.57;;
20294;SDS011;10306;52.128;5.208;2023-03-16T10:20:10;4.93;;;3.30;;
20294;SDS011;10306;52.128;5.208;2023-03-16T10:22:41;4.63;;;3.10;;
20294;SDS011;10306;52.128;5.208;2023-03-16T10:27:46;2.80;;;2.60;;
20294;SDS011;10306;52.128;5.208;2023-03-16T10:32:38;6.33;;;2.90;;
20294;SDS011;10306;52.128;5.208;2023-03-16T10:35:06;2.80;;;2.43;;
20294;SDS011;10306;52.128;5.208;2023-03-16T10:37:36;3.13;;;2.70;;
20294;SDS011;10306;52.128;5.208;2023-03-16T10:40:06;2.40;;;2.30;;
20294;SDS011;10306;52.128;5.208;2023-03-16T10:42:34;2.97;;;2.67;;
20294;SDS011;10306;52.128;5.208;2023-03-16T10:45:01;8.27;;;2.60;;
20294;SDS011;10306;52.128;5.208;2023-03-16T10:47:28;2.67;;;2.47;;
20294;SDS011;10306;52.128;5.208;2023-03-16T10:49:55;3.30;;;2.40;;
20294;SDS011;10306;52.128;5.208;2023-03-16T10:55:05;4.57;;;2.47;;
20294;SDS011;10306;52.128;5.208;2023-03-16T10:57:32;4.20;;;2.40;;
20294;SDS011;10306;52.128;5.208;2023-03-16T11:00:20;2.70;;;2.50;;
20294;SDS011;10306;52.128;5.208;2023-03-16T11:02:50;2.60;;;2.33;;
20294;SDS011;10306;52.128;5.208;2023-03-16T11:13:00;2.57;;;2.37;;
20294;SDS011;10306;52.128;5.208;2023-03-16T11:15:26;4.30;;;2.73;;
20294;SDS011;10306;52.128;5.208;2023-03-16T11:17:58;2.50;;;2.03;;
20294;SDS011;10306;52.128;5.208;2023-03-16T11:20:27;6.93;;;2.40;;
20294;SDS011;10306;52.128;5.208;2023-03-16T11:22:56;2.10;;;2.00;;
20294;SDS011;10306;52.128;5.208;2023-03-16T11:25:27;2.30;;;2.20;;
20294;SDS011;10306;52.128;5.208;2023-03-16T11:28:54;2.60;;;2.00;;
20294;SDS011;10306;52.128;5.208;2023-03-16T11:31:07;2.43;;;2.17;;
20294;SDS011;10306;52.128;5.208;2023-03-16T11:33:35;2.53;;;2.33;;
20294;SDS011;10306;52.128;5.208;2023-03-16T11:38:53;2.20;;;1.83;;
20294;SDS011;10306;52.128;5.208;2023-03-16T11:41:43;5.17;;;2.20;;
20294;SDS011;10306;52.128;5.208;2023-03-16T11:44:14;1.87;;;1.77;;
20294;SDS011;10306;52.128;5.208;2023-03-16T11:51:50;2.27;;;1.70;;
20294;SDS011;10306;52.128;5.208;2023-03-16T12:10:28;1.90;;;1.60;;
20294;SDS011;10306;52.128;5.208;2023-03-16T12:15:54;1.40;;;1.30;;
20294;SDS011;10306;52.128;5.208;2023-03-16T12:18:42;1.70;;;1.03;;
20294;SDS011;10306;52.128;5.208;2023-03-16T12:21:11;1.40;;;1.30;;
20294;SDS011;10306;52.128;5.208;2023-03-16T12:23:42;6.77;;;1.43;;
20294;SDS011;10306;52.128;5.208;2023-03-16T12:26:14;1.60;;;1.30;;
20294;SDS011;10306;52.128;5.208;2023-03-16T12:28:41;1.90;;;1.60;;
20294;SDS011;10306;52.128;5.208;2023-03-16T12:31:09;2.40;;;1.07;;
20294;SDS011;10306;52.128;5.208;2023-03-16T12:33:52;2.50;;;1.43;;
20294;SDS011;10306;52.128;5.208;2023-03-16T12:39:01;1.27;;;1.17;;
20294;SDS011;10306;52.128;5.208;2023-03-16T12:44:14;1.50;;;1.40;;
20294;SDS011;10306;52.128;5.208;2023-03-16T12:46:53;1.20;;;1.10;;
20294;SDS011;10306;52.128;5.208;2023-03-16T12:49:22;1.43;;;1.00;;
20294;SDS011;10306;52.128;5.208;2023-03-16T12:51:57;1.30;;;1.20;;
20294;SDS011;10306;52.128;5.208;2023-03-16T12:54:24;1.90;;;1.40;;
20294;SDS011;10306;52.128;5.208;2023-03-16T12:56:52;1.30;;;1.10;;
20294;SDS011;10306;52.128;5.208;2023-03-16T12:59:20;1.30;;;1.20;;
20294;SDS011;10306;52.128;5.208;2023-03-16T13:01:56;2.20;;;1.50;;
20294;SDS011;10306;52.128;5.208;2023-03-16T13:04:30;1.70;;;1.20;;
20294;SDS011;10306;52.128;5.208;2023-03-16T13:07:05;1.10;;;1.10;;
20294;SDS011;10306;52.128;5.208;2023-03-16T13:09:34;1.40;;;1.30;;
20294;SDS011;10306;52.128;5.208;2023-03-16T13:12:01;1.20;;;1.10;;
20294;SDS011;10306;52.128;5.208;2023-03-16T13:14:40;1.30;;;1.20;;
20294;SDS011;10306;52.128;5.208;2023-03-16T13:19:40;1.47;;;1.37;;
20294;SDS011;10306;52.128;5.208;2023-03-16T13:24:54;1.30;;;1.10;;
20294;SDS011;10306;52.128;5.208;2023-03-16T13:27:29;1.10;;;1.10;;
20294;SDS011;10306;52.128;5.208;2023-03-16T13:29:56;1.97;;;1.20;;
20294;SDS011;10306;52.128;5.208;2023-03-16T13:32:23;1.17;;;1.17;;
20294;SDS011;10306;52.128;5.208;2023-03-16T13:34:51;1.10;;;1.00;;
20294;SDS011;10306;52.128;5.208;2023-03-16T13:37:18;1.53;;;1.00;;
20294;SDS011;10306;52.128;5.208;2023-03-16T13:39:55;1.00;;;1.00;;
20294;SDS011;10306;52.128;5.208;2023-03-16T13:42:22;0.83;;;0.80;;
20294;SDS011;10306;52.128;5.208;2023-03-16T13:44:53;1.70;;;1.00;;
20294;SDS011;10306;52.128;5.208;2023-03-16T13:47:20;1.23;;;1.13;;
20294;SDS011;10306;52.128;5.208;2023-03-16T13:49:48;1.97;;;1.20;;
20294;SDS011;10306;52.128;5.208;2023-03-16T13:52:18;1.10;;;0.90;;
20294;SDS011;10306;52.128;5.208;2023-03-16T13:54:47;1.30;;;1.30;;
20294;SDS011;10306;52.128;5.208;2023-03-16T13:57:13;1.98;;;1.02;;
20294;SDS011;10306;52.128;5.208;2023-03-16T13:59:40;1.07;;;1.07;;
20294;SDS011;10306;52.128;5.208;2023-03-16T14:02:25;4.90;;;1.33;;
20294;SDS011;10306;52.128;5.208;2023-03-16T14:04:51;1.77;;;1.17;;
20294;SDS011;10306;52.128;5.208;2023-03-16T14:07:19;1.83;;;1.10;;
20294;SDS011;10306;52.128;5.208;2023-03-16T14:09:47;1.20;;;1.10;;
20294;SDS011;10306;52.128;5.208;2023-03-16T14:12:15;1.67;;;0.73;;
20294;SDS011;10306;52.128;5.208;2023-03-16T14:14:44;1.40;;;1.30;;
20294;SDS011;10306;52.128;5.208;2023-03-16T14:17:11;2.22;;;1.02;;
20294;SDS011;10306;52.128;5.208;2023-03-16T14:19:44;1.02;;;1.02;;
20294;SDS011;10306;52.128;5.208;2023-03-16T14:22:44;1.33;;;1.23;;
20294;SDS011;10306;52.128;5.208;2023-03-16T14:25:03;1.23;;;1.20;;
20294;SDS011;10306;52.128;5.208;2023-03-16T14:30:18;1.65;;;1.00;;
20294;SDS011;10306;52.128;5.208;2023-03-16T14:32:58;0.98;;;0.90;;
20294;SDS011;10306;52.128;5.208;2023-03-16T14:35:25;1.00;;;0.80;;
20294;SDS011;10306;52.128;5.208;2023-03-16T14:37:52;1.30;;;1.20;;
20294;SDS011;10306;52.128;5.208;2023-03-16T14:40:24;1.00;;;1.00;;
20294;SDS011;10306;52.128;5.208;2023-03-16T14:42:51;1.13;;;1.02;;
20294;SDS011;10306;52.128;5.208;2023-03-16T14:45:18;0.73;;;0.73;;
20294;SDS011;10306;52.128;5.208;2023-03-16T14:47:46;1.20;;;1.20;;
20294;SDS011;10306;52.128;5.208;2023-03-16T14:50:16;1.02;;;1.02;;
20294;SDS011;10306;52.128;5.208;2023-03-16T14:52:43;2.35;;;1.00;;
20294;SDS011;10306;52.128;5.208;2023-03-16T14:55:11;1.10;;;1.10;;
20294;SDS011;10306;52.128;5.208;2023-03-16T14:57:39;1.58;;;1.15;;
20294;SDS011;10306;52.128;5.208;2023-03-16T15:00:06;0.98;;;0.98;;
20294;SDS011;10306;52.128;5.208;2023-03-16T15:02:33;1.20;;;1.10;;
20294;SDS011;10306;52.128;5.208;2023-03-16T15:05:00;1.25;;;1.08;;
20294;SDS011;10306;52.128;5.208;2023-03-16T15:07:27;0.77;;;0.77;;
20294;SDS011;10306;52.128;5.208;2023-03-16T15:10:00;1.00;;;1.00;;
20294;SDS011;10306;52.128;5.208;2023-03-16T15:12:30;5.10;;;0.90;;
20294;SDS011;10306;52.128;5.208;2023-03-16T15:14:58;1.70;;;1.03;;
20294;SDS011;10306;52.128;5.208;2023-03-16T15:17:40;1.43;;;0.90;;
20294;SDS011;10306;52.128;5.208;2023-03-16T15:20:08;0.77;;;0.77;;
20294;SDS011;10306;52.128;5.208;2023-03-16T15:22:36;1.53;;;0.97;;
20294;SDS011;10306;52.128;5.208;2023-03-16T15:25:16;2.80;;;0.97;;
20294;SDS011;10306;52.128;5.208;2023-03-16T15:27:43;1.00;;;0.90;;
20294;SDS011;10306;52.128;5.208;2023-03-16T15:30:20;1.07;;;1.00;;
20294;SDS011;10306;52.128;5.208;2023-03-16T15:32:46;1.33;;;0.90;;
20294;SDS011;10306;52.128;5.208;2023-03-16T15:35:12;2.17;;;0.90;;
20294;SDS011;10306;52.128;5.208;2023-03-16T15:37:38;1.17;;;0.80;;
20294;SDS011;10306;52.128;5.208;2023-03-16T15:40:12;2.43;;;1.40;;
20294;SDS011;10306;52.128;5.208;2023-03-16T15:42:39;2.57;;;1.10;;
20294;SDS011;10306;52.128;5.208;2023-03-16T15:45:09;1.03;;;0.70;;
20294;SDS011;10306;52.128;5.208;2023-03-16T15:47:35;0.70;;;0.70;;
20294;SDS011;10306;52.128;5.208;2023-03-16T15:50:01;0.70;;;0.70;;
20294;SDS011;10306;52.128;5.208;2023-03-16T15:52:29;2.00;;;0.80;;
20294;SDS011;10306;52.128;5.208;2023-03-16T15:54:56;1.83;;;0.80;;
20294;SDS011;10306;52.128;5.208;2023-03-16T15:57:27;0.70;;;0.70;;
20294;SDS011;10306;52.128;5.208;2023-03-16T15:59:53;1.20;;;1.10;;
20294;SDS011;10306;52.128;5.208;2023-03-16T16:02:24;0.73;;;0.73;;